Akron, Ohio
Current Conditions -  °F | °C
As of 5:54 PM on Wednesday 26 Nov 2014 (Local Time) from KAKR Reporting Station
Overcast Overcast  
Wind Chill:   Ceiling: 3400
Heat Index:   Visibility: 10mi
Dew Point: -4°   Wind: 7mph
Humidity: 62%   Direction: 350°N
Pressure: 30.02"   Gusts: NA
Location:  41.08°N, 81.51°W
Report Text: KAKR 262254Z AUTO 35006KT 10SM OVC034 03/M04 A3002 RMK AO2 SLP174 T00281039 $
Loading
Personal Weather Stations






























Interactive Weather Map New forecast layout! Learn more

10-Day Weather Forecast

Advertisements
Track Severe Weather on mobile